Time;durP1;ratioP1;P1;durP2;ratioP2;P2;SDS_P1;SDS_P2;PMS_P1;PMS_P2;Temp;Humidity;BMP_temperature;BMP_pressure;BME280_temperature;BME280_humidity;BME280_pressure;Samples;Min_cycle;Max_cycle;Signal;HPM_P1;HPM_P2
2023/08/05 00:01:24;;;;;;;4.18;1.70;;;17.70;99.90;;;;;;5051162;28;20033;-71
2023/08/05 00:03:50;;;;;;;1.88;1.40;;;17.60;99.90;;;;;;5050654;28;20694;-70
2023/08/05 00:06:16;;;;;;;3.83;1.60;;;17.50;99.90;;;;;;5051460;28;20037;-70
2023/08/05 00:08:41;;;;;;;3.67;2.05;;;17.50;99.90;;;;;;5051255;28;20389;-70
2023/08/05 00:11:07;;;;;;;3.90;1.80;;;17.40;99.90;;;;;;5051218;28;20564;-70
2023/08/05 00:13:34;;;;;;;6.35;1.75;;;17.40;99.90;;;;;;5050535;28;20659;-70
2023/08/05 00:16:02;;;;;;;3.15;1.80;;;17.30;99.90;;;;;;5051208;28;20029;-70
2023/08/05 00:18:28;;;;;;;3.65;2.00;;;17.20;99.90;;;;;;5051144;28;20396;-71
2023/08/05 00:20:54;;;;;;;2.70;1.40;;;17.20;99.90;;;;;;5050146;28;20033;-71
2023/08/05 00:23:19;;;;;;;2.65;1.65;;;17.10;99.90;;;;;;5048966;28;20032;-71
2023/08/05 00:25:45;;;;;;;3.97;2.28;;;17.10;99.90;;;;;;5051204;28;20033;-71
2023/08/05 00:28:11;;;;;;;5.53;1.88;;;17.00;99.90;;;;;;5051101;28;20416;-70
2023/08/05 00:30:37;;;;;;;3.45;1.85;;;16.90;99.90;;;;;;5050613;28;20070;-71
2023/08/05 00:33:02;;;;;;;2.95;1.67;;;16.90;99.90;;;;;;5050344;28;20040;-70
2023/08/05 00:35:28;;;;;;;3.92;1.77;;;16.80;99.90;;;;;;5050747;28;20040;-70
2023/08/05 00:37:54;;;;;;;3.70;1.80;;;16.80;99.90;;;;;;5050576;28;20029;-71
2023/08/05 00:40:20;;;;;;;3.17;2.03;;;16.70;99.90;;;;;;5049510;28;20428;-70
2023/08/05 00:42:46;;;;;;;2.92;1.65;;;16.70;99.90;;;;;;5050153;28;20029;-70
2023/08/05 00:45:12;;;;;;;8.02;2.30;;;16.60;99.90;;;;;;5049278;28;20385;-70
2023/08/05 00:47:38;;;;;;;4.03;2.15;;;16.70;99.90;;;;;;5049463;28;20031;-70
2023/08/05 00:50:04;;;;;;;3.90;2.13;;;16.60;99.90;;;;;;5051031;28;20512;-70
2023/08/05 00:52:30;;;;;;;2.72;1.63;;;16.60;99.90;;;;;;5048926;28;20096;-70
2023/08/05 00:54:56;;;;;;;3.22;1.80;;;16.60;99.90;;;;;;5049522;28;20450;-70
2023/08/05 00:57:22;;;;;;;3.03;1.75;;;16.50;99.90;;;;;;5050822;28;20037;-70
2023/08/05 00:59:48;;;;;;;4.60;1.73;;;16.50;99.90;;;;;;5049286;28;20039;-70
2023/08/05 01:02:14;;;;;;;4.60;1.80;;;16.40;99.90;;;;;;5050125;28;20115;-70
2023/08/05 01:04:40;;;;;;;3.72;1.95;;;16.40;99.90;;;;;;5040790;28;20040;-70
2023/08/05 01:07:06;;;;;;;4.00;1.92;;;16.40;99.90;;;;;;5018574;28;20025;-70
2023/08/05 01:09:32;;;;;;;4.55;2.28;;;16.30;99.90;;;;;;5035723;28;20047;-70
2023/08/05 01:11:59;;;;;;;6.43;2.13;;;16.20;99.90;;;;;;5035340;28;20485;-69
2023/08/05 01:14:24;;;;;;;4.20;1.95;;;16.20;99.90;;;;;;5029741;28;20577;-70
2023/08/05 01:16:50;;;;;;;5.30;2.63;;;16.10;99.90;;;;;;5010676;28;20117;-70
2023/08/05 01:19:21;;;;;;;4.18;2.00;;;16.20;99.90;;;;;;5011174;28;20030;-70
2023/08/05 01:22:03;;;;;;;;;;;16.20;99.90;;;;;;5010102;28;20037;-70
2023/08/05 01:24:41;;;;;;;4.05;1.50;;;16.10;99.90;;;;;;5021081;28;19917;-70
2023/08/05 01:27:09;;;;;;;3.50;1.63;;;16.10;99.90;;;;;;5030341;28;20064;-70
2023/08/05 01:29:35;;;;;;;3.67;1.88;;;16.00;99.90;;;;;;5029458;28;20021;-69
2023/08/05 01:32:01;;;;;;;3.55;2.08;;;16.00;99.90;;;;;;5028577;28;20091;-70
2023/08/05 01:34:28;;;;;;;3.03;1.92;;;16.00;99.90;;;;;;5028463;28;20025;-70
2023/08/05 01:36:53;;;;;;;4.70;2.45;;;16.00;99.90;;;;;;5030270;28;20052;-70
2023/08/05 01:39:19;;;;;;;4.60;2.15;;;15.90;99.90;;;;;;5029495;28;20033;-69
2023/08/05 01:41:45;;;;;;;3.95;1.88;;;15.90;99.90;;;;;;5016013;28;20041;-70
2023/08/05 01:44:10;;;;;;;4.30;2.03;;;15.80;99.90;;;;;;5009864;28;20030;-70
2023/08/05 01:46:36;;;;;;;5.30;2.20;;;15.70;99.90;;;;;;5010422;28;20033;-70
2023/08/05 01:49:02;;;;;;;3.20;1.73;;;15.70;99.90;;;;;;5022727;28;20508;-70
2023/08/05 01:51:28;;;;;;;2.90;1.85;;;15.70;99.90;;;;;;5046118;28;20014;-70
2023/08/05 01:53:53;;;;;;;5.18;1.95;;;15.60;99.90;;;;;;5049664;28;20112;-70
2023/08/05 01:56:19;;;;;;;3.80;1.65;;;15.60;99.90;;;;;;5053698;28;20492;-69
2023/08/05 01:58:45;;;;;;;4.05;2.30;;;15.60;99.90;;;;;;5052544;28;20037;-70
2023/08/05 02:01:10;;;;;;;4.78;2.80;;;15.50;99.90;;;;;;5053746;28;20431;-70
2023/08/05 02:03:36;;;;;;;7.32;2.65;;;15.60;99.90;;;;;;5052479;28;20033;-70
2023/08/05 02:06:02;;;;;;;3.55;1.80;;;15.60;99.90;;;;;;5052284;28;20037;-69
2023/08/05 02:08:27;;;;;;;3.08;1.92;;;15.60;99.90;;;;;;5053586;28;20021;-69
2023/08/05 02:10:53;;;;;;;4.28;2.08;;;15.60;99.90;;;;;;5053549;28;20040;-70
2023/08/05 02:13:19;;;;;;;9.35;2.22;;;15.60;99.90;;;;;;5052601;28;20033;-70
2023/08/05 02:15:45;;;;;;;14.27;2.22;;;15.40;99.90;;;;;;5040199;28;20040;-70
2023/08/05 02:18:10;;;;;;;4.85;1.88;;;15.40;99.90;;;;;;5033017;28;20116;-70
2023/08/05 02:20:36;;;;;;;3.63;1.80;;;15.40;99.90;;;;;;5032244;28;20417;-69
2023/08/05 02:23:02;;;;;;;3.78;1.98;;;15.30;99.90;;;;;;5032478;28;20061;-69
2023/08/05 02:25:27;;;;;;;6.20;2.10;;;15.20;99.90;;;;;;5028491;28;20029;-70
2023/08/05 02:27:53;;;;;;;5.47;1.98;;;15.20;99.90;;;;;;5013239;28;20053;-70
2023/08/05 02:30:19;;;;;;;3.53;1.98;;;15.10;99.90;;;;;;5013153;28;20394;-69
2023/08/05 02:32:45;;;;;;;3.10;1.85;;;15.10;99.90;;;;;;5012607;28;20029;-69
2023/08/05 02:35:10;;;;;;;3.38;1.75;;;15.10;99.90;;;;;;5012154;28;20065;-69
2023/08/05 02:37:36;;;;;;;9.43;2.40;;;14.90;99.90;;;;;;5028556;28;20149;-69
2023/08/05 02:40:03;;;;;;;5.45;2.78;;;14.90;99.90;;;;;;5013193;28;20037;-69
2023/08/05 02:42:29;;;;;;;4.22;2.30;;;14.90;99.90;;;;;;5012245;28;20406;-69
2023/08/05 02:44:54;;;;;;;5.60;2.05;;;14.90;99.90;;;;;;5013015;28;20038;-70
2023/08/05 02:47:20;;;;;;;5.63;2.35;;;14.90;99.90;;;;;;5013314;28;20033;-69
2023/08/05 02:49:46;;;;;;;3.85;1.98;;;14.80;99.90;;;;;;5012818;28;20536;-69
2023/08/05 02:52:11;;;;;;;5.18;2.25;;;14.80;99.90;;;;;;5012836;28;20057;-69
2023/08/05 02:54:37;;;;;;;5.93;2.58;;;14.70;99.90;;;;;;5012547;28;20233;-69
2023/08/05 02:57:03;;;;;;;4.05;2.08;;;14.80;99.90;;;;;;5013009;28;20042;-69
2023/08/05 02:59:29;;;;;;;4.18;1.88;;;14.80;99.90;;;;;;5012771;28;20030;-69
2023/08/05 03:01:55;;;;;;;3.55;1.88;;;14.80;99.90;;;;;;5012586;28;20042;-70
2023/08/05 03:04:21;;;;;;;4.65;2.13;;;14.70;99.90;;;;;;5029383;28;20025;-69
2023/08/05 03:06:46;;;;;;;9.15;2.22;;;14.70;99.90;;;;;;5038139;28;20083;-70
2023/08/05 03:09:13;;;;;;;2.67;1.65;;;14.50;99.90;;;;;;5032121;28;20232;-70
2023/08/05 03:11:39;;;;;;;6.45;3.30;;;14.60;99.90;;;;;;5044869;28;20056;-70
2023/08/05 03:14:05;;;;;;;3.00;1.80;;;14.50;99.90;;;;;;5031621;28;20529;-70
2023/08/05 03:16:32;;;;;;;4.38;2.47;;;14.50;99.90;;;;;;5032030;28;20075;-69
2023/08/05 03:18:58;;;;;;;11.50;1.75;;;14.50;99.90;;;;;;5030843;28;20405;-70
2023/08/05 03:21:23;;;;;;;7.07;2.22;;;14.50;99.90;;;;;;5012543;28;20030;-70
2023/08/05 03:23:49;;;;;;;4.15;1.70;;;14.50;99.90;;;;;;5026520;28;20041;-70
2023/08/05 03:26:15;;;;;;;3.47;1.77;;;14.60;99.90;;;;;;5011055;28;20026;-69
2023/08/05 03:28:40;;;;;;;3.65;1.90;;;14.60;99.90;;;;;;5012152;28;20100;-70
2023/08/05 03:31:06;;;;;;;5.10;2.08;;;14.50;99.90;;;;;;5012002;28;20034;-70
2023/08/05 03:33:32;;;;;;;3.47;1.98;;;14.50;99.90;;;;;;5011149;28;20044;-70
2023/08/05 03:35:57;;;;;;;4.93;2.03;;;14.40;99.90;;;;;;5011930;28;20075;-70
2023/08/05 03:38:23;;;;;;;5.75;2.03;;;14.40;99.90;;;;;;5030857;28;20104;-70
2023/08/05 03:40:49;;;;;;;3.75;1.70;;;14.40;99.90;;;;;;5031802;28;20033;-70
2023/08/05 03:43:15;;;;;;;3.30;1.88;;;14.40;99.90;;;;;;5030818;28;20048;-70
2023/08/05 03:45:48;;;;;;;3.13;1.75;;;14.40;99.90;;;;;;5031765;28;20037;-70
2023/08/05 03:48:13;;;;;;;5.10;2.22;;;14.40;99.90;;;;;;5031478;28;20025;-70
2023/08/05 03:50:39;;;;;;;12.27;1.80;;;14.40;99.90;;;;;;5030137;28;20036;-70
2023/08/05 03:53:05;;;;;;;4.30;2.20;;;14.40;99.90;;;;;;5030741;28;20033;-71
2023/08/05 03:55:30;;;;;;;4.10;2.17;;;14.30;99.90;;;;;;5030157;28;20052;-70
2023/08/05 03:57:56;;;;;;;3.38;2.03;;;14.30;99.90;;;;;;5031333;28;20036;-70
2023/08/05 04:00:22;;;;;;;3.58;1.63;;;14.30;99.90;;;;;;5030244;28;20033;-70
2023/08/05 04:02:48;;;;;;;3.70;1.48;;;14.30;99.90;;;;;;5030428;28;20112;-70
2023/08/05 04:05:13;;;;;;;4.85;2.80;;;14.30;99.90;;;;;;5030811;28;20045;-70
2023/08/05 04:07:40;;;;;;;4.45;1.95;;;14.20;99.90;;;;;;5030005;28;20477;-70
2023/08/05 04:10:06;;;;;;;3.60;2.13;;;14.10;99.90;;;;;;5031189;28;20029;-71
2023/08/05 04:12:35;;;;;;;3.65;2.00;;;14.20;99.90;;;;;;5029992;28;20025;-70
2023/08/05 04:15:02;;;;;;;4.60;1.75;;;14.00;99.90;;;;;;5023854;28;20033;-70
2023/08/05 04:17:29;;;;;;;5.68;2.03;;;14.00;99.90;;;;;;5011492;28;20061;-71
2023/08/05 04:19:55;;;;;;;2.85;1.80;;;14.10;99.90;;;;;;5010975;28;20077;-71
2023/08/05 04:22:22;;;;;;;6.97;2.20;;;14.20;99.90;;;;;;5025577;28;20502;-71
2023/08/05 04:24:48;;;;;;;3.45;2.00;;;14.30;99.90;;;;;;5011127;28;20506;-70
2023/08/05 04:27:14;;;;;;;4.72;2.20;;;14.20;99.90;;;;;;5030287;28;20072;-70
2023/08/05 04:29:41;;;;;;;5.72;2.38;;;14.20;99.90;;;;;;5039067;28;20486;-70
2023/08/05 04:32:07;;;;;;;6.10;2.70;;;14.20;99.90;;;;;;5050613;22;20076;-72
2023/08/05 04:34:36;;;;;;;3.30;1.92;;;14.20;99.90;;;;;;5020406;28;20060;-71
2023/08/05 04:37:19;;;;;;;3.38;1.55;;;14.10;99.90;;;;;;5002588;28;20075;-72
2023/08/05 04:39:46;;;;;;;5.95;2.13;;;14.20;99.90;;;;;;5028025;28;20033;-72
2023/08/05 04:42:13;;;;;;;4.78;1.45;;;14.30;99.90;;;;;;5013783;28;20125;-72
2023/08/05 04:44:40;;;;;;;3.42;2.13;;;14.30;99.90;;;;;;4992656;28;20030;-72
2023/08/05 04:47:10;;;;;;;4.25;2.38;;;14.40;99.90;;;;;;4993340;28;20026;-72
2023/08/05 04:49:41;;;;;;;3.63;1.75;;;14.30;99.90;;;;;;5011059;28;20076;-72
2023/08/05 04:52:08;;;;;;;5.55;2.22;;;14.20;99.90;;;;;;4993819;28;20061;-72
2023/08/05 04:54:44;;;;;;;3.55;1.77;;;14.10;99.90;;;;;;4976380;28;20045;-72
2023/08/05 04:57:11;;;;;;;5.03;1.90;;;14.10;99.90;;;;;;5010820;28;20038;-72
2023/08/05 04:59:37;;;;;;;4.80;2.13;;;14.10;99.90;;;;;;4993318;28;20032;-71
2023/08/05 05:02:04;;;;;;;3.85;2.25;;;14.10;99.90;;;;;;5010426;28;20117;-75
2023/08/05 05:04:30;;;;;;;5.25;2.10;;;14.20;99.90;;;;;;4992124;28;20030;-75
2023/08/05 05:06:56;;;;;;;6.00;2.25;;;14.30;99.90;;;;;;4992438;28;20346;-75
2023/08/05 05:09:22;;;;;;;3.85;1.90;;;14.40;99.90;;;;;;4993089;28;20034;-75
2023/08/05 05:11:47;;;;;;;4.03;2.03;;;14.50;99.90;;;;;;4992885;28;20527;-75
2023/08/05 05:14:13;;;;;;;7.07;2.05;;;14.50;99.90;;;;;;5009087;28;20064;-75
2023/08/05 05:16:39;;;;;;;5.53;2.20;;;14.60;99.90;;;;;;4990925;28;20045;-75
2023/08/05 05:19:05;;;;;;;5.38;2.45;;;14.70;99.90;;;;;;4990772;28;20023;-75
2023/08/05 05:21:31;;;;;;;10.52;2.03;;;14.60;99.90;;;;;;4973401;28;20088;-75
2023/08/05 05:23:56;;;;;;;5.38;2.03;;;14.70;99.90;;;;;;4973430;28;20041;-75
2023/08/05 05:26:22;;;;;;;7.70;1.90;;;14.60;99.90;;;;;;4977419;28;20030;-75
2023/08/05 05:28:48;;;;;;;3.53;1.95;;;14.70;99.90;;;;;;4994675;28;20030;-75
2023/08/05 05:31:13;;;;;;;2.38;1.45;;;14.70;99.90;;;;;;4994292;28;20030;-75
2023/08/05 05:33:39;;;;;;;5.13;2.22;;;14.90;99.90;;;;;;4993882;28;20042;-75
2023/08/05 05:36:05;;;;;;;6.60;2.20;;;14.90;99.90;;;;;;4994492;28;20042;-75
2023/08/05 05:38:31;;;;;;;3.35;1.90;;;15.00;99.90;;;;;;4976676;28;20613;-75
2023/08/05 05:40:57;;;;;;;6.75;2.72;;;15.10;99.90;;;;;;4994463;28;20037;-75
2023/08/05 05:43:23;;;;;;;3.40;1.80;;;15.10;99.90;;;;;;4993741;28;20109;-75
2023/08/05 05:45:53;;;;;;;3.88;1.95;;;15.10;99.90;;;;;;4994182;28;20169;-74
2023/08/05 05:48:19;;;;;;;11.90;2.40;;;15.20;99.90;;;;;;4977252;28;20077;-75
2023/08/05 05:50:45;;;;;;;4.78;2.00;;;15.30;99.90;;;;;;4994297;28;20102;-75
2023/08/05 05:53:13;;;;;;;4.10;2.35;;;15.40;99.90;;;;;;4993381;28;20141;-74
2023/08/05 05:55:44;;;;;;;5.28;2.10;;;15.40;99.90;;;;;;4994184;28;20027;-75
2023/08/05 05:58:12;;;;;;;2.53;1.52;;;15.50;99.90;;;;;;4994238;28;20092;-75
2023/08/05 06:00:39;;;;;;;6.40;2.30;;;15.50;99.90;;;;;;4994881;28;20386;-77
2023/08/05 06:03:06;;;;;;;4.22;1.90;;;15.60;99.90;;;;;;4996336;28;20025;-75
2023/08/05 06:05:31;;;;;;;3.47;1.70;;;15.70;99.90;;;;;;4996146;28;20051;-73
2023/08/05 06:07:57;;;;;;;4.68;2.10;;;15.80;99.90;;;;;;5013607;28;20761;-73
2023/08/05 06:10:23;;;;;;;5.28;1.63;;;15.80;99.90;;;;;;4995747;28;20481;-74
2023/08/05 06:12:49;;;;;;;6.13;1.80;;;15.80;99.90;;;;;;5007719;28;20026;-74
2023/08/05 06:15:15;;;;;;;5.35;2.40;;;15.80;99.90;;;;;;5017063;28;20104;-73
2023/08/05 06:17:41;;;;;;;3.92;2.22;;;15.90;99.90;;;;;;5002614;28;20398;-74
2023/08/05 06:20:08;;;;;;;3.17;1.45;;;16.00;99.90;;;;;;5015530;28;20064;-76
2023/08/05 06:22:34;;;;;;;3.92;1.63;;;16.00;99.90;;;;;;5010087;28;20048;-76
2023/08/05 06:25:00;;;;;;;3.83;1.95;;;16.10;99.90;;;;;;5013081;28;20490;-76
2023/08/05 06:27:26;;;;;;;2.42;1.60;;;16.20;99.90;;;;;;4995470;28;20049;-76
2023/08/05 06:29:52;;;;;;;3.70;1.92;;;16.20;99.90;;;;;;5013980;28;20080;-73
2023/08/05 06:32:18;;;;;;;8.52;2.20;;;16.30;99.90;;;;;;5012404;28;20037;-75
2023/08/05 06:34:43;;;;;;;2.75;1.42;;;16.30;99.90;;;;;;5012713;28;20034;-74
2023/08/05 06:37:09;;;;;;;4.63;2.05;;;16.30;99.90;;;;;;5012806;28;20037;-75
2023/08/05 06:39:35;;;;;;;4.03;1.92;;;16.40;99.90;;;;;;4995503;28;20108;-75
2023/08/05 06:42:01;;;;;;;4.30;2.20;;;16.60;99.90;;;;;;5014871;28;20180;-74
2023/08/05 06:44:27;;;;;;;5.05;2.38;;;16.70;99.90;;;;;;5032083;28;20026;-73
2023/08/05 06:46:53;;;;;;;5.90;1.45;;;16.80;99.90;;;;;;5032644;28;20025;-73
2023/08/05 06:49:18;;;;;;;4.07;1.67;;;16.70;99.90;;;;;;5032350;28;20371;-74
2023/08/05 06:51:44;;;;;;;4.07;1.80;;;16.70;99.90;;;;;;5032167;28;20478;-75
2023/08/05 06:54:11;;;;;;;3.22;1.75;;;16.80;99.90;;;;;;5031654;28;20122;-76
2023/08/05 06:56:37;;;;;;;3.10;2.10;;;16.90;99.90;;;;;;5020561;28;20135;-75
2023/08/05 06:59:03;;;;;;;3.25;1.33;;;16.90;99.90;;;;;;5019846;28;20101;-74
2023/08/05 07:01:28;;;;;;;3.03;1.63;;;16.90;99.90;;;;;;5023789;28;20049;-75
2023/08/05 07:03:54;;;;;;;2.83;1.60;;;17.00;99.90;;;;;;5013891;28;20041;-74
2023/08/05 07:06:20;;;;;;;14.02;1.70;;;17.00;99.90;;;;;;5032104;28;20029;-74
2023/08/05 07:08:45;;;;;;;5.45;2.10;;;17.00;99.90;;;;;;5032352;28;20036;-72
2023/08/05 07:11:11;;;;;;;3.63;1.60;;;16.90;99.90;;;;;;5005204;28;20497;-72
2023/08/05 07:13:37;;;;;;;2.40;1.30;;;16.90;99.90;;;;;;5016315;28;20038;-72
2023/08/05 07:16:04;;;;;;;2.55;1.05;;;16.90;99.90;;;;;;5029944;28;20029;-71
2023/08/05 07:18:30;;;;;;;3.83;1.33;;;17.00;99.90;;;;;;5014514;28;20120;-71
2023/08/05 07:20:56;;;;;;;3.38;1.70;;;17.10;99.90;;;;;;5014085;28;20037;-70
2023/08/05 07:23:22;;;;;;;3.28;1.50;;;17.20;99.90;;;;;;5013371;28;20041;-70
2023/08/05 07:25:48;;;;;;;8.60;1.80;;;17.30;99.90;;;;;;5031800;28;20033;-70
2023/08/05 07:28:15;;;;;;;3.83;1.30;;;17.40;99.90;;;;;;5031833;28;20037;-70
2023/08/05 07:30:41;;;;;;;2.25;1.25;;;17.50;99.90;;;;;;5031500;28;20037;-70
2023/08/05 07:33:09;;;;;;;6.32;1.90;;;17.60;99.90;;;;;;5031205;28;20482;-70
2023/08/05 07:35:36;;;;;;;3.88;1.20;;;17.60;99.90;;;;;;5014350;28;20105;-70
2023/08/05 07:38:04;;;;;;;4.68;2.08;;;17.50;99.90;;;;;;5014013;28;20026;-70
2023/08/05 07:40:31;;;;;;;8.68;1.67;;;17.50;99.90;;;;;;5011238;28;20033;-70
2023/08/05 07:43:00;;;;;;;2.40;1.35;;;17.50;99.90;;;;;;5020775;28;20025;-71
2023/08/05 07:45:26;;;;;;;3.10;1.40;;;17.50;99.90;;;;;;5031316;28;20041;-69
2023/08/05 07:47:53;;;;;;;2.28;1.00;;;17.60;99.90;;;;;;5030841;28;20112;-70
2023/08/05 07:50:22;;;;;;;3.80;1.13;;;17.70;99.90;;;;;;5013640;28;20025;-71
2023/08/05 07:52:53;;;;;;;1.58;1.10;;;17.80;99.90;;;;;;5013496;28;20032;-71
2023/08/05 07:55:19;;;;;;;6.88;1.50;;;17.90;99.90;;;;;;5014199;28;20074;-71
2023/08/05 07:57:46;;;;;;;3.65;1.45;;;17.90;99.90;;;;;;5031150;28;20042;-70
2023/08/05 08:00:13;;;;;;;6.40;2.83;;;18.00;99.90;;;;;;5013891;28;20378;-70
2023/08/05 08:02:46;;;;;;;2.95;1.58;;;18.10;99.90;;;;;;5012834;28;20040;-70
2023/08/05 08:05:14;;;;;;;4.85;1.40;;;18.10;99.90;;;;;;5031258;28;20393;-70
2023/08/05 08:07:47;;;;;;;1.98;1.13;;;18.20;99.90;;;;;;5031120;28;20440;-71
2023/08/05 08:10:16;;;;;;;2.55;1.38;;;18.40;99.90;;;;;;5030779;28;20053;-71
2023/08/05 08:12:43;;;;;;;2.70;1.33;;;18.40;99.90;;;;;;5000887;28;20017;-71
2023/08/05 08:15:09;;;;;;;4.30;1.60;;;18.50;99.90;;;;;;5013802;28;20053;-70
2023/08/05 08:17:35;;;;;;;2.67;1.33;;;18.60;99.90;;;;;;5019649;28;20025;-70
2023/08/05 08:20:01;;;;;;;3.47;1.35;;;18.60;99.90;;;;;;5012652;28;20639;-70
2023/08/05 08:22:27;;;;;;;3.83;1.50;;;18.70;99.90;;;;;;4979477;28;20038;-70
2023/08/05 08:24:53;;;;;;;3.20;1.63;;;18.80;99.90;;;;;;4991477;28;20034;-70
2023/08/05 08:27:19;;;;;;;2.70;1.30;;;18.80;99.90;;;;;;4991057;28;20029;-70
2023/08/05 08:29:44;;;;;;;2.58;1.15;;;18.90;99.90;;;;;;4991599;28;20114;-70
2023/08/05 08:32:10;;;;;;;5.82;1.52;;;19.10;99.90;;;;;;4991310;28;20666;-70
2023/08/05 08:34:35;;;;;;;4.30;1.50;;;19.00;99.90;;;;;;4990815;28;20124;-70
2023/08/05 08:37:01;;;;;;;3.40;1.35;;;19.30;99.90;;;;;;4991107;28;20034;-70
2023/08/05 08:39:27;;;;;;;2.42;1.42;;;19.50;99.90;;;;;;4991497;28;20030;-70
2023/08/05 08:41:54;;;;;;;3.60;2.30;;;19.50;99.90;;;;;;4993956;28;20033;-70
2023/08/05 08:44:20;;;;;;;2.67;1.20;;;19.20;99.90;;;;;;5001328;28;20080;-71
2023/08/05 08:46:48;;;;;;;3.05;1.80;;;19.50;99.90;;;;;;5019735;28;20104;-72
2023/08/05 08:49:16;;;;;;;2.80;1.30;;;19.50;99.90;;;;;;5012260;28;20030;-72
2023/08/05 08:51:47;;;;;;;3.42;1.70;;;19.70;99.90;;;;;;5029962;28;20473;-72
2023/08/05 08:54:14;;;;;;;2.85;1.50;;;19.50;99.90;;;;;;5012112;28;20044;-71
2023/08/05 08:56:41;;;;;;;2.45;1.60;;;19.70;99.90;;;;;;5028510;28;20088;-71
2023/08/05 08:59:09;;;;;;;2.33;1.35;;;19.50;99.90;;;;;;4944955;28;20060;-71
2023/08/05 09:01:42;;;;;;;3.05;1.58;;;19.40;99.90;;;;;;4994592;28;20113;-70
2023/08/05 09:04:11;;;;;;;3.72;1.65;;;19.50;99.90;;;;;;4994475;28;20456;-69
2023/08/05 09:06:41;;;;;;;3.40;1.60;;;19.80;99.90;;;;;;4977963;28;20033;-71
2023/08/05 09:09:06;;;;;;;4.22;1.77;;;19.80;99.90;;;;;;4977946;28;20054;-73
2023/08/05 09:11:32;;;;;;;5.40;1.63;;;19.80;99.90;;;;;;4988211;28;20053;-70
2023/08/05 09:13:58;;;;;;;2.20;1.20;;;19.70;99.90;;;;;;5032023;28;20045;-71
2023/08/05 09:16:26;;;;;;;3.92;1.10;;;19.90;99.90;;;;;;5009422;28;20105;-72
2023/08/05 09:18:55;;;;;;;3.00;1.35;;;20.00;99.90;;;;;;4995705;28;20030;-73
2023/08/05 09:21:26;;;;;;;4.07;1.10;;;20.20;99.90;;;;;;4992720;28;20037;-72
2023/08/05 09:23:58;;;;;;;;;;;20.30;99.90;;;;;;4994505;28;20031;-71
2023/08/05 09:26:28;;;;;;;3.03;1.10;;;20.50;99.90;;;;;;4977150;28;19910;-72
2023/08/05 09:28:56;;;;;;;2.03;1.02;;;20.60;99.90;;;;;;4994548;28;20482;-72
2023/08/05 09:31:22;;;;;;;2.97;1.30;;;20.60;99.90;;;;;;4977107;28;20040;-73
2023/08/05 09:33:48;;;;;;;1.38;1.00;;;20.70;99.90;;;;;;4976543;28;20465;-72
2023/08/05 09:36:22;;;;;;;7.93;1.40;;;20.90;99.90;;;;;;4977164;28;20049;-72
2023/08/05 09:39:05;;;;;;;1.73;0.88;;;20.70;99.90;;;;;;4994432;28;20375;-71
2023/08/05 09:41:34;;;;;;;2.58;1.00;;;20.90;99.90;;;;;;5004457;28;20477;-71
2023/08/05 09:44:00;;;;;;;1.63;1.00;;;21.30;99.90;;;;;;5024927;28;20038;-70
2023/08/05 09:46:44;;;;;;;2.65;1.40;;;21.00;99.90;;;;;;5027184;28;20099;-73
2023/08/05 09:49:17;;;;;;;2.22;1.10;;;21.10;99.90;;;;;;5014238;28;20017;-66
2023/08/05 09:51:46;;;;;;;1.88;1.52;;;21.20;99.90;;;;;;4997077;28;20049;-66
2023/08/05 09:54:17;;;;;;;1.58;0.90;;;21.20;99.90;;;;;;5013160;28;20033;-65
2023/08/05 09:56:44;;;;;;;2.78;1.00;;;21.10;99.90;;;;;;5013633;28;20076;-65
2023/08/05 09:59:12;;;;;;;2.15;0.80;;;21.40;99.90;;;;;;4979853;28;20038;-65
2023/08/05 10:01:40;;;;;;;3.55;1.00;;;21.60;99.90;;;;;;4996378;28;20060;-65
2023/08/05 10:04:09;;;;;;;2.00;1.17;;;21.40;99.90;;;;;;4995044;28;20121;-65
2023/08/05 10:06:38;;;;;;;2.45;1.02;;;21.60;99.90;;;;;;4996285;28;20533;-66
2023/08/05 10:09:04;;;;;;;12.00;1.35;;;21.40;99.90;;;;;;5013188;28;20065;-66
2023/08/05 10:11:30;;;;;;;1.95;0.80;;;21.60;99.90;;;;;;5012635;28;20083;-65
2023/08/05 10:13:57;;;;;;;1.48;0.98;;;21.90;99.90;;;;;;5012781;28;20030;-66
2023/08/05 10:16:24;;;;;;;2.45;1.48;;;22.00;99.90;;;;;;5025523;28;20064;-66
2023/08/05 10:18:50;;;;;;;4.93;1.38;;;22.10;99.90;;;;;;4995763;28;20041;-66
2023/08/05 10:21:40;;;;;;;8.20;2.92;;;22.30;99.90;;;;;;4998556;28;20108;-66
2023/08/05 10:24:06;;;;;;;5.38;0.90;;;22.80;99.90;;;;;;5005937;28;20029;-66
2023/08/05 10:26:43;;;;;;;2.22;1.00;;;23.10;99.90;;;;;;5033004;28;20041;-66
2023/08/05 10:29:30;;;;;;;2.60;1.23;;;23.10;99.90;;;;;;5032823;28;20063;-66
2023/08/05 10:32:14;;;;;;;1.38;0.80;;;22.90;99.90;;;;;;5039466;23;20145;-67
2023/08/05 10:34:40;;;;;;;4.18;1.73;;;22.70;99.90;;;;;;5032333;28;20026;-67
2023/08/05 10:37:06;;;;;;;2.45;1.20;;;22.90;99.90;;;;;;5011933;28;20040;-68
2023/08/05 10:39:40;;;;;;;1.70;0.90;;;22.80;99.90;;;;;;5013242;28;20041;-68
2023/08/05 10:42:29;;;;;;;3.67;1.58;;;22.60;99.90;;;;;;5015758;28;20127;-67
2023/08/05 10:44:55;;;;;;;2.47;0.95;;;22.70;99.90;;;;;;5032858;28;20034;-67
2023/08/05 10:47:24;;;;;;;1.55;1.02;;;23.10;99.90;;;;;;5032640;28;20029;-68
2023/08/05 10:50:00;;;;;;;1.55;0.80;;;22.80;99.90;;;;;;5014665;28;20034;-68
2023/08/05 10:52:26;;;;;;;1.63;0.80;;;22.60;99.90;;;;;;5031925;28;20022;-68
2023/08/05 10:54:56;;;;;;;1.85;1.15;;;23.10;99.90;;;;;;5032565;28;20083;-68
2023/08/05 10:57:34;;;;;;;7.47;1.40;;;23.40;99.90;;;;;;5031258;28;20083;-68
2023/08/05 11:00:01;;;;;;;1.77;1.27;;;23.00;99.90;;;;;;5032203;28;20413;-68
2023/08/05 11:02:27;;;;;;;3.90;2.08;;;23.50;99.90;;;;;;5030514;28;20029;-68
2023/08/05 11:05:09;;;;;;;2.00;1.10;;;23.70;99.90;;;;;;5030209;28;20039;-68
2023/08/05 11:07:39;;;;;;;1.70;0.73;;;23.70;99.90;;;;;;5006821;28;20030;-68
2023/08/05 11:10:07;;;;;;;2.00;0.90;;;23.70;99.90;;;;;;5012448;28;20355;-68
2023/08/05 11:12:33;;;;;;;2.05;1.05;;;23.70;99.90;;;;;;5016796;28;20029;-68
2023/08/05 11:15:00;;;;;;;1.85;1.08;;;24.00;99.90;;;;;;5031774;28;20037;-68
2023/08/05 11:17:26;;;;;;;1.67;1.00;;;24.10;99.60;;;;;;5032334;28;20051;-68
2023/08/05 11:19:53;;;;;;;1.75;0.80;;;23.60;98.60;;;;;;5032108;28;20033;-67
2023/08/05 11:22:33;;;;;;;2.05;0.70;;;23.70;99.30;;;;;;5031323;28;20159;-67
2023/08/05 11:25:01;;;;;;;1.90;1.00;;;23.50;99.10;;;;;;5031991;28;20021;-67
2023/08/05 11:27:43;;;;;;;1.50;1.05;;;23.70;99.90;;;;;;5031986;28;20103;-68
2023/08/05 11:30:17;;;;;;;1.80;1.02;;;24.20;99.50;;;;;;5030468;28;20076;-68
2023/08/05 11:33:03;;;;;;;0.77;0.60;;;24.70;98.80;;;;;;5030935;28;20037;-68
2023/08/05 11:35:28;;;;;;;1.45;0.75;;;25.20;95.90;;;;;;5031765;28;20041;-68
2023/08/05 11:37:55;;;;;;;3.25;1.70;;;24.60;99.00;;;;;;5031795;28;20504;-68
2023/08/05 11:40:22;;;;;;;4.60;1.13;;;24.70;98.10;;;;;;5032007;28;20025;-68
2023/08/05 11:42:48;;;;;;;5.25;1.65;;;24.20;96.40;;;;;;5030590;28;20034;-68
2023/08/05 11:45:15;;;;;;;1.33;0.88;;;24.40;98.50;;;;;;5030101;28;20037;-68
2023/08/05 11:47:42;;;;;;;1.30;0.80;;;24.70;98.30;;;;;;5031646;28;20022;-68
2023/08/05 11:50:10;;;;;;;0.95;0.60;;;24.60;96.50;;;;;;5031480;28;20041;-69
2023/08/05 11:52:36;;;;;;;2.53;0.93;;;24.20;97.50;;;;;;5029489;28;20436;-67
2023/08/05 11:55:06;;;;;;;1.10;0.70;;;24.20;96.60;;;;;;5013776;28;20083;-67
2023/08/05 11:57:32;;;;;;;3.70;1.05;;;24.40;97.20;;;;;;5030234;28;20644;-69
2023/08/05 12:00:09;;;;;;;0.73;0.52;;;25.00;96.40;;;;;;5031240;28;20370;-68
2023/08/05 12:02:36;;;;;;;1.60;0.80;;;24.30;98.60;;;;;;5029423;28;20457;-68
2023/08/05 12:05:04;;;;;;;1.85;0.90;;;23.90;99.70;;;;;;5031011;28;20029;-67
2023/08/05 12:07:29;;;;;;;3.17;0.50;;;24.10;99.20;;;;;;5031432;28;20025;-68
2023/08/05 12:10:05;;;;;;;3.30;1.55;;;23.90;98.00;;;;;;5031161;28;20469;-68
2023/08/05 12:12:31;;;;;;;1.77;0.93;;;23.90;98.20;;;;;;5017433;28;20108;-68
2023/08/05 12:15:14;;;;;;;1.48;0.93;;;24.00;98.20;;;;;;5012296;28;20030;-68
2023/08/05 12:17:47;;;;;;;1.52;0.77;;;24.40;99.90;;;;;;5009958;28;20032;-68
2023/08/05 12:20:19;;;;;;;4.97;0.75;;;24.40;99.10;;;;;;5006367;28;20470;-68
2023/08/05 12:22:46;;;;;;;1.58;0.82;;;24.60;96.30;;;;;;4989646;28;20031;-68
2023/08/05 12:25:13;;;;;;;2.10;0.90;;;24.60;95.60;;;;;;5010968;28;20033;-68
2023/08/05 12:27:39;;;;;;;0.95;0.60;;;24.30;97.50;;;;;;5009689;28;20033;-68
2023/08/05 12:30:07;;;;;;;0.90;0.65;;;23.90;97.90;;;;;;5009769;28;20022;-68
2023/08/05 12:32:34;;;;;;;1.25;0.80;;;23.70;99.20;;;;;;5008473;28;20030;-67
2023/08/05 12:35:05;;;;;;;1.85;0.90;;;23.80;98.30;;;;;;5011134;28;20092;-67
2023/08/05 12:37:33;;;;;;;1.60;0.73;;;23.40;99.00;;;;;;5011047;28;20040;-68
2023/08/05 12:40:00;;;;;;;1.30;0.80;;;23.10;99.90;;;;;;5010886;28;20117;-68
2023/08/05 12:42:26;;;;;;;1.45;0.60;;;23.20;99.90;;;;;;5015933;28;20059;-68
2023/08/05 12:44:51;;;;;;;2.72;1.10;;;23.10;99.90;;;;;;5030425;28;20033;-69
2023/08/05 12:47:19;;;;;;;2.47;0.82;;;22.80;99.90;;;;;;5030489;28;20037;-68
2023/08/05 12:49:45;;;;;;;2.45;0.82;;;22.50;99.90;;;;;;5030676;28;20022;-68